createdAt,value
2022-10-20T00:01:22.942Z,9.62
2022-10-20T00:03:50.810Z,9.66
2022-10-20T00:06:27.858Z,9.53
2022-10-20T00:08:57.152Z,9.51
2022-10-20T00:11:26.553Z,9.69
2022-10-20T00:13:55.192Z,9.89
2022-10-20T00:16:23.898Z,9.97
2022-10-20T00:18:51.430Z,9.95
2022-10-20T00:21:23.028Z,9.58
2022-10-20T00:23:50.853Z,9.59
2022-10-20T00:26:25.917Z,9.27
2022-10-20T00:28:54.947Z,9.53
2022-10-20T00:31:23.321Z,9.86
2022-10-20T00:33:50.975Z,9.67
2022-10-20T00:36:19.976Z,9.75
2022-10-20T00:38:47.795Z,9.36
2022-10-20T00:41:21.576Z,8.79
2022-10-20T00:43:57.931Z,9.13
2022-10-20T00:46:27.215Z,9.43
2022-10-20T00:49:00.538Z,9.68
2022-10-20T00:51:29.946Z,9.42
2022-10-20T00:54:03.589Z,9.17
2022-10-20T00:56:31.186Z,8.98
2022-10-20T00:59:00.871Z,9.21
2022-10-20T01:01:28.252Z,9.49
2022-10-20T01:03:55.693Z,9.70
2022-10-20T01:06:23.533Z,9.53
2022-10-20T01:08:52.284Z,9.31
2022-10-20T01:11:33.696Z,9.62
2022-10-20T01:14:26.096Z,9.40
2022-10-20T01:17:18.933Z,9.36
2022-10-20T01:20:26.604Z,9.55
2022-10-20T01:23:18.077Z,9.44
2022-10-20T01:26:23.875Z,9.19
2022-10-20T01:28:59.282Z,9.35
2022-10-20T01:31:44.753Z,9.33
2022-10-20T01:34:32.176Z,9.17
2022-10-20T01:37:05.829Z,9.04
2022-10-20T01:39:38.346Z,8.86
2022-10-20T01:42:12.610Z,8.89
2022-10-20T01:44:40.740Z,9.01
2022-10-20T01:47:09.946Z,8.88
2022-10-20T01:49:37.381Z,8.71
2022-10-20T01:52:04.804Z,8.93
2022-10-20T01:54:32.447Z,8.44
2022-10-20T01:57:30.249Z,8.59
2022-10-20T02:00:03.756Z,8.66
2022-10-20T02:02:53.315Z,8.38
2022-10-20T02:05:36.247Z,8.52
2022-10-20T02:08:14.203Z,8.76
2022-10-20T02:10:46.281Z,8.46
2022-10-20T02:13:14.516Z,8.34
2022-10-20T02:15:47.690Z,8.62
2022-10-20T02:18:19.082Z,8.62
2022-10-20T02:20:49.373Z,8.62
2022-10-20T02:23:17.720Z,8.57
2022-10-20T02:25:47.824Z,8.16
2022-10-20T02:28:15.897Z,8.07
2022-10-20T02:30:43.872Z,7.70
2022-10-20T02:33:11.770Z,7.82
2022-10-20T02:35:42.662Z,7.91
2022-10-20T02:38:09.976Z,8.02
2022-10-20T02:40:37.295Z,8.33
2022-10-20T02:43:04.865Z,8.20
2022-10-20T02:45:32.176Z,8.21
2022-10-20T02:47:59.553Z,8.17
2022-10-20T02:50:27.141Z,8.31
2022-10-20T02:52:54.511Z,8.16
2022-10-20T02:55:21.896Z,8.15
2022-10-20T02:57:49.586Z,7.92
2022-10-20T03:00:16.895Z,7.76
2022-10-20T03:02:44.316Z,8.08
2022-10-20T03:05:12.008Z,8.14
2022-10-20T03:07:39.504Z,7.82
2022-10-20T03:10:07.299Z,7.69
2022-10-20T03:12:35.002Z,7.90
2022-10-20T03:15:02.357Z,8.14
2022-10-20T03:17:29.905Z,7.69
2022-10-20T03:19:57.505Z,7.57
2022-10-20T03:22:24.870Z,7.99
2022-10-20T03:24:52.215Z,8.26
2022-10-20T03:27:19.861Z,8.16
2022-10-20T03:29:47.205Z,8.21
2022-10-20T03:32:14.726Z,7.84
2022-10-20T03:34:42.296Z,8.04
2022-10-20T03:37:09.652Z,8.08
2022-10-20T03:39:36.977Z,7.67
2022-10-20T03:42:04.609Z,7.64
2022-10-20T03:44:31.940Z,7.35
2022-10-20T03:47:00.229Z,7.42
2022-10-20T03:49:27.809Z,7.46
2022-10-20T03:51:55.118Z,7.22
2022-10-20T03:54:22.554Z,7.05
2022-10-20T03:56:50.183Z,7.04
2022-10-20T03:59:17.520Z,7.36
2022-10-20T04:01:45.527Z,7.59
2022-10-20T04:04:13.404Z,7.07
2022-10-20T04:06:40.732Z,7.09
2022-10-20T04:09:08.092Z,6.96
2022-10-20T04:11:35.765Z,7.40
2022-10-20T04:14:03.175Z,7.63
2022-10-20T04:16:30.499Z,7.60
2022-10-20T04:18:58.107Z,7.68
2022-10-20T04:21:26.426Z,7.73
2022-10-20T04:23:53.750Z,7.56
2022-10-20T04:26:21.731Z,7.63
2022-10-20T04:28:49.041Z,7.58
2022-10-20T04:31:16.402Z,7.52
2022-10-20T04:33:44.020Z,6.85
2022-10-20T04:36:12.603Z,7.03
2022-10-20T04:38:40.023Z,6.67
2022-10-20T04:41:07.608Z,6.57
2022-10-20T04:43:35.184Z,6.64
2022-10-20T04:46:07.231Z,7.09
2022-10-20T04:48:37.559Z,6.73
2022-10-20T04:51:07.901Z,6.84
2022-10-20T04:53:35.452Z,6.96
2022-10-20T04:56:04.233Z,6.72
2022-10-20T04:58:31.596Z,6.95
2022-10-20T05:01:04.197Z,6.99
2022-10-20T05:03:31.908Z,7.19
2022-10-20T05:06:17.373Z,7.06
2022-10-20T05:08:47.236Z,7.08
2022-10-20T05:11:15.290Z,7.06
2022-10-20T05:13:42.988Z,7.05
2022-10-20T05:16:11.540Z,6.98
2022-10-20T05:18:39.622Z,6.54
2022-10-20T05:21:10.097Z,6.41
2022-10-20T05:23:39.151Z,6.40
2022-10-20T05:26:08.865Z,6.89
2022-10-20T05:28:36.242Z,7.15
2022-10-20T05:31:05.444Z,7.03
2022-10-20T05:33:33.602Z,7.02
2022-10-20T05:36:00.997Z,6.57
2022-10-20T05:38:28.585Z,6.37
2022-10-20T05:40:56.031Z,6.89
2022-10-20T05:43:23.568Z,6.83
2022-10-20T05:45:54.846Z,6.43
2022-10-20T05:48:22.198Z,6.47
2022-10-20T05:50:49.583Z,6.06
2022-10-20T05:53:17.178Z,6.60
2022-10-20T05:55:44.510Z,7.09
2022-10-20T05:58:11.839Z,6.44
2022-10-20T06:00:42.283Z,6.23
2022-10-20T06:03:09.872Z,6.44
2022-10-20T06:05:37.208Z,7.07
2022-10-20T06:08:04.726Z,6.46
2022-10-20T06:10:32.346Z,6.36
2022-10-20T06:12:59.669Z,6.71
2022-10-20T06:15:26.993Z,6.78
2022-10-20T06:17:54.575Z,7.03
2022-10-20T06:20:21.912Z,6.98
2022-10-20T06:22:49.248Z,6.92
2022-10-20T06:25:16.935Z,8.06
2022-10-20T06:27:44.580Z,8.52
2022-10-20T06:30:12.244Z,8.80
2022-10-20T06:32:39.915Z,9.31
2022-10-20T06:35:07.360Z,9.55
2022-10-20T06:37:34.737Z,9.89
2022-10-20T06:40:02.549Z,11.17
2022-10-20T06:42:29.965Z,12.13
2022-10-20T06:44:58.825Z,12.32
2022-10-20T06:47:26.456Z,12.47
2022-10-20T06:49:53.947Z,12.84
2022-10-20T06:52:21.265Z,12.67
2022-10-20T06:54:48.838Z,12.28
2022-10-20T06:57:16.137Z,12.06
2022-10-20T06:59:43.447Z,12.59
2022-10-20T07:02:12.159Z,12.40
2022-10-20T07:04:39.586Z,12.70
2022-10-20T07:07:06.912Z,13.19
2022-10-20T07:09:34.516Z,13.53
2022-10-20T07:12:02.165Z,13.71
2022-10-20T07:14:32.336Z,13.81
2022-10-20T07:17:00.148Z,13.09
2022-10-20T07:19:27.473Z,13.53
2022-10-20T07:21:54.873Z,13.40
2022-10-20T07:24:22.534Z,13.88
2022-10-20T07:26:52.843Z,13.89
2022-10-20T07:29:20.610Z,13.45
2022-10-20T07:31:48.340Z,13.52
2022-10-20T07:34:25.778Z,13.20
2022-10-20T07:36:55.272Z,12.91
2022-10-20T07:39:22.621Z,12.97
2022-10-20T07:41:51.727Z,12.91
2022-10-20T07:44:19.658Z,12.50
2022-10-20T07:46:47.010Z,13.56
2022-10-20T07:49:42.760Z,13.38
2022-10-20T07:52:01.935Z,13.61
2022-10-20T07:54:29.339Z,14.40
2022-10-20T07:56:56.670Z,13.90
2022-10-20T07:59:24.537Z,13.91
2022-10-20T08:01:54.784Z,14.35
2022-10-20T08:04:26.405Z,14.38
2022-10-20T08:06:53.734Z,14.08
2022-10-20T08:09:21.066Z,14.04
2022-10-20T08:11:52.729Z,14.05
2022-10-20T08:14:23.214Z,13.89
2022-10-20T08:17:05.879Z,13.60
2022-10-20T08:22:16.222Z,13.47
2022-10-20T08:24:43.805Z,13.48
2022-10-20T08:27:11.210Z,13.73
2022-10-20T08:29:38.805Z,14.26
2022-10-20T08:32:06.131Z,14.82
2022-10-20T08:34:33.443Z,14.98
2022-10-20T08:37:01.020Z,15.11
2022-10-20T08:39:28.367Z,15.15
2022-10-20T08:42:07.915Z,15.20
2022-10-20T08:44:38.565Z,14.80
2022-10-20T08:47:21.540Z,14.95
2022-10-20T08:49:49.455Z,14.87
2022-10-20T08:52:17.459Z,15.13
2022-10-20T08:54:44.961Z,15.84
2022-10-20T08:57:34.657Z,16.05
2022-10-20T09:00:21.723Z,16.77
2022-10-20T09:02:50.596Z,16.54
2022-10-20T09:05:23.536Z,15.68
2022-10-20T09:07:52.220Z,16.50
2022-10-20T09:10:25.507Z,16.51
2022-10-20T09:12:53.288Z,15.77
2022-10-20T09:15:21.324Z,16.00
2022-10-20T09:17:51.880Z,15.73
2022-10-20T09:20:25.347Z,16.16
2022-10-20T09:22:52.753Z,16.27
2022-10-20T09:25:24.084Z,16.15
2022-10-20T09:27:52.027Z,16.25
2022-10-20T09:30:29.490Z,16.61
2022-10-20T09:32:56.943Z,15.70
2022-10-20T09:35:24.522Z,16.10
2022-10-20T09:38:25.029Z,16.12
2022-10-20T09:40:57.777Z,16.13
2022-10-20T09:43:26.106Z,15.85
2022-10-20T09:45:56.614Z,16.22
2022-10-20T09:48:26.224Z,17.09
2022-10-20T09:50:56.544Z,16.27
2022-10-20T09:53:27.555Z,16.69
2022-10-20T09:55:55.600Z,17.15
2022-10-20T09:58:31.534Z,16.87
2022-10-20T10:01:13.635Z,16.91
2022-10-20T10:03:45.066Z,17.25
2022-10-20T10:06:27.962Z,17.68
2022-10-20T10:08:57.142Z,16.93
2022-10-20T10:11:29.201Z,16.06
2022-10-20T10:13:56.814Z,17.02
2022-10-20T10:16:24.642Z,16.29
2022-10-20T10:19:02.128Z,16.61
2022-10-20T10:21:30.879Z,16.98
2022-10-20T10:24:02.884Z,17.10
2022-10-20T10:26:46.816Z,17.16
2022-10-20T10:29:35.448Z,17.15
2022-10-20T10:32:19.232Z,16.64
2022-10-20T10:35:04.812Z,16.54
2022-10-20T10:37:34.997Z,16.57
2022-10-20T10:40:13.418Z,16.67
2022-10-20T10:42:59.172Z,16.96
2022-10-20T10:45:29.297Z,16.69
2022-10-20T10:48:12.769Z,17.04
2022-10-20T10:50:59.113Z,17.47
2022-10-20T10:53:42.651Z,17.45
2022-10-20T10:56:39.495Z,17.14
2022-10-20T10:59:12.517Z,17.52
2022-10-20T11:01:47.524Z,18.31
2022-10-20T11:04:58.354Z,18.37
2022-10-20T11:08:03.046Z,18.22
2022-10-20T11:10:46.401Z,18.61
2022-10-20T11:13:41.613Z,18.69
2022-10-20T11:16:28.131Z,18.63
2022-10-20T11:19:13.712Z,18.80
2022-10-20T11:22:03.185Z,18.88
2022-10-20T11:25:05.764Z,19.06
2022-10-20T11:27:35.974Z,18.72
2022-10-20T11:30:15.342Z,19.41
2022-10-20T11:33:06.281Z,18.73
2022-10-20T11:35:49.572Z,18.33
2022-10-20T11:38:25.240Z,18.08
2022-10-20T11:41:17.534Z,18.10
2022-10-20T11:44:07.013Z,17.63
2022-10-20T11:46:43.130Z,18.26
2022-10-20T11:49:12.475Z,18.92
2022-10-20T11:52:08.387Z,19.19
2022-10-20T11:54:55.011Z,19.12
2022-10-20T11:57:41.217Z,18.94
2022-10-20T12:00:28.421Z,18.36
2022-10-20T12:03:30.142Z,19.51
2022-10-20T12:06:28.091Z,18.52
2022-10-20T12:09:10.538Z,18.54
2022-10-20T12:11:58.895Z,18.63
2022-10-20T12:14:38.310Z,17.84
2022-10-20T12:17:29.621Z,18.21
2022-10-20T12:20:38.433Z,19.10
2022-10-20T12:23:05.809Z,19.48
2022-10-20T12:25:36.861Z,19.51
2022-10-20T12:28:25.538Z,19.90
2022-10-20T12:30:59.839Z,19.58
2022-10-20T12:33:48.893Z,19.94
2022-10-20T12:36:16.480Z,18.15
2022-10-20T12:38:51.630Z,18.33
2022-10-20T12:41:34.137Z,17.32
2022-10-20T12:44:15.457Z,18.28
2022-10-20T12:46:51.894Z,18.28
2022-10-20T12:49:23.990Z,18.14
2022-10-20T12:51:53.672Z,17.55
2022-10-20T12:54:24.024Z,17.63
2022-10-20T12:56:52.653Z,18.07
2022-10-20T12:59:31.531Z,17.85
2022-10-20T13:02:10.981Z,17.58
2022-10-20T13:04:58.456Z,17.65
2022-10-20T13:07:48.356Z,17.68
2022-10-20T13:10:29.100Z,17.18
2022-10-20T13:13:02.425Z,17.54
2022-10-20T13:15:35.750Z,17.75
2022-10-20T13:18:12.495Z,17.88
2022-10-20T13:20:49.849Z,17.49
2022-10-20T13:23:40.321Z,17.56
2022-10-20T13:26:22.782Z,17.07
2022-10-20T13:28:53.393Z,16.84
2022-10-20T13:31:33.567Z,17.13
2022-10-20T13:34:07.616Z,17.29
2022-10-20T13:37:02.241Z,17.25
2022-10-20T13:39:38.744Z,16.93
2022-10-20T13:42:34.216Z,16.72
2022-10-20T13:45:28.757Z,16.68
2022-10-20T13:48:18.484Z,17.16
2022-10-20T13:50:49.892Z,16.60
2022-10-20T13:53:25.901Z,16.60
2022-10-20T13:56:07.113Z,16.80
2022-10-20T13:58:34.875Z,16.48
2022-10-20T14:01:13.384Z,16.39
2022-10-20T14:03:45.653Z,16.83
2022-10-20T14:06:36.337Z,16.09
2022-10-20T14:09:20.295Z,16.48
2022-10-20T14:11:54.071Z,16.84
2022-10-20T14:14:24.329Z,15.79
2022-10-20T14:16:53.423Z,16.08
2022-10-20T14:19:23.450Z,16.10
2022-10-20T14:21:51.204Z,15.53
2022-10-20T14:24:35.162Z,15.57
2022-10-20T14:27:04.705Z,15.86
2022-10-20T14:29:35.153Z,15.34
2022-10-20T14:32:02.781Z,16.10
2022-10-20T14:34:36.897Z,15.21
2022-10-20T14:37:07.078Z,15.46
2022-10-20T14:39:37.337Z,15.69
2022-10-20T14:42:19.557Z,15.38
2022-10-20T14:44:47.443Z,15.56
2022-10-20T14:47:15.230Z,15.57
2022-10-20T14:49:43.655Z,15.65
2022-10-20T14:52:20.369Z,15.77
2022-10-20T14:54:52.530Z,15.66
2022-10-20T14:57:19.762Z,15.22
2022-10-20T14:59:59.098Z,15.36
2022-10-20T15:02:28.712Z,15.46
2022-10-20T15:04:56.114Z,15.51
2022-10-20T15:07:34.415Z,15.20
2022-10-20T15:10:16.466Z,14.93
2022-10-20T15:12:46.226Z,15.22
2022-10-20T15:15:18.828Z,14.84
2022-10-20T15:18:07.566Z,14.97
2022-10-20T15:20:38.840Z,15.23
2022-10-20T15:23:09.255Z,15.28
2022-10-20T15:26:04.153Z,15.40
2022-10-20T15:28:37.557Z,14.77
2022-10-20T15:31:17.440Z,14.73
2022-10-20T15:33:44.946Z,14.89
2022-10-20T15:36:15.513Z,14.70
2022-10-20T15:38:43.427Z,14.87
2022-10-20T15:41:15.363Z,14.68
2022-10-20T15:43:43.319Z,14.68
2022-10-20T15:46:12.172Z,14.73
2022-10-20T15:48:39.664Z,14.80
2022-10-20T15:51:34.229Z,14.95
2022-10-20T15:54:01.832Z,14.79
2022-10-20T15:56:29.515Z,14.63
2022-10-20T15:58:58.003Z,14.24
2022-10-20T16:01:25.477Z,14.12
2022-10-20T16:03:53.121Z,14.13
2022-10-20T16:06:21.625Z,13.80
2022-10-20T16:08:50.529Z,13.28
2022-10-20T16:11:19.737Z,13.43
2022-10-20T16:13:47.301Z,13.30
2022-10-20T16:16:17.452Z,13.55
2022-10-20T16:18:45.570Z,13.17
2022-10-20T16:21:13.286Z,13.31
2022-10-20T16:23:42.519Z,12.96
2022-10-20T16:26:13.902Z,12.73
2022-10-20T16:28:41.273Z,12.85
2022-10-20T16:31:11.244Z,12.65
2022-10-20T16:33:38.936Z,12.25
2022-10-20T16:36:09.379Z,12.09
2022-10-20T16:38:40.080Z,12.20
2022-10-20T16:41:13.987Z,11.95
2022-10-20T16:43:44.092Z,12.17
2022-10-20T16:46:12.879Z,12.25
2022-10-20T16:48:42.689Z,12.09
2022-10-20T16:51:15.621Z,12.04
2022-10-20T16:53:43.535Z,11.88
2022-10-20T16:56:13.044Z,11.77
2022-10-20T16:58:43.114Z,11.77
2022-10-20T17:01:12.317Z,11.66
2022-10-20T17:03:45.300Z,11.79
2022-10-20T17:06:14.454Z,11.82
2022-10-20T17:08:42.668Z,11.66
2022-10-20T17:11:12.862Z,11.85
2022-10-20T17:13:42.587Z,12.03
2022-10-20T17:16:16.095Z,11.78
2022-10-20T17:18:44.542Z,11.44
2022-10-20T17:21:13.241Z,11.45
2022-10-20T17:23:43.175Z,11.36
2022-10-20T17:26:16.493Z,11.51
2022-10-20T17:28:46.149Z,11.24
2022-10-20T17:33:45.050Z,11.31
2022-10-20T17:36:13.492Z,11.20
2022-10-20T17:38:42.050Z,11.19
2022-10-20T17:41:12.266Z,11.13
2022-10-20T17:43:40.229Z,11.35
2022-10-20T17:46:11.961Z,11.34
2022-10-20T17:48:40.041Z,10.98
2022-10-20T17:51:13.475Z,11.22
2022-10-20T17:53:45.830Z,11.05
2022-10-20T17:56:22.246Z,10.87
2022-10-20T17:58:50.859Z,10.99
2022-10-20T18:01:27.647Z,10.96
2022-10-20T18:03:58.713Z,10.81
2022-10-20T18:06:33.563Z,10.59
2022-10-20T18:09:06.441Z,10.15
2022-10-20T18:11:35.253Z,10.15
2022-10-20T18:14:03.875Z,10.24
2022-10-20T18:16:33.612Z,10.06
2022-10-20T18:19:01.914Z,9.77
2022-10-20T18:21:32.002Z,9.86
2022-10-20T18:24:02.966Z,9.94
2022-10-20T18:26:33.401Z,9.95
2022-10-20T18:29:05.125Z,10.18
2022-10-20T18:31:34.202Z,10.14
2022-10-20T18:34:11.778Z,9.97
2022-10-20T18:36:43.564Z,9.91
2022-10-20T18:39:14.587Z,9.80
2022-10-20T18:41:44.054Z,9.84
2022-10-20T18:44:14.725Z,9.42
2022-10-20T18:46:43.208Z,9.52
2022-10-20T18:49:13.214Z,9.47
2022-10-20T18:51:41.382Z,9.68
2022-10-20T18:54:10.535Z,9.62
2022-10-20T18:56:39.299Z,9.45
2022-10-20T18:59:14.308Z,9.36
2022-10-20T19:01:42.220Z,9.27
2022-10-20T19:04:11.030Z,8.92
2022-10-20T19:06:44.137Z,9.19
2022-10-20T19:09:14.971Z,9.23
2022-10-20T19:11:43.457Z,9.26
2022-10-20T19:14:12.680Z,9.12
2022-10-20T19:16:42.979Z,8.98
2022-10-20T19:19:11.492Z,8.74
2022-10-20T19:21:40.427Z,8.74
2022-10-20T19:24:11.753Z,8.63
2022-10-20T19:26:41.910Z,8.69
2022-10-20T19:29:15.312Z,8.91
2022-10-20T19:31:52.132Z,8.99
2022-10-20T19:34:21.598Z,8.90
2022-10-20T19:36:49.948Z,8.75
2022-10-20T19:39:21.132Z,8.65
2022-10-20T19:41:49.436Z,8.39
2022-10-20T19:44:17.473Z,8.14
2022-10-20T19:46:47.487Z,8.22
2022-10-20T19:49:16.347Z,7.71
2022-10-20T19:51:44.546Z,7.69
2022-10-20T19:54:13.664Z,7.91
2022-10-20T19:56:42.100Z,8.42
2022-10-20T19:59:10.815Z,7.85
2022-10-20T20:01:39.006Z,8.48
2022-10-20T20:04:06.775Z,7.90
2022-10-20T20:06:35.250Z,7.83
2022-10-20T20:09:05.888Z,8.11
2022-10-20T20:11:35.224Z,8.10
2022-10-20T20:14:07.042Z,7.87
2022-10-20T20:16:35.119Z,7.89
2022-10-20T20:19:02.722Z,7.02
2022-10-20T20:21:30.335Z,6.65
2022-10-20T20:24:01.161Z,7.34
2022-10-20T20:26:30.253Z,7.62
2022-10-20T20:28:58.372Z,7.51
2022-10-20T20:31:26.180Z,7.34
2022-10-20T20:33:54.098Z,7.29
2022-10-20T20:36:21.739Z,7.06
2022-10-20T20:38:50.705Z,7.02
2022-10-20T20:41:21.007Z,7.16
2022-10-20T20:43:48.663Z,7.12
2022-10-20T20:46:19.022Z,7.11
2022-10-20T20:48:46.823Z,7.31
2022-10-20T20:51:14.979Z,7.05
2022-10-20T20:53:42.337Z,6.78
2022-10-20T20:56:12.336Z,6.98
2022-10-20T20:58:41.922Z,6.08
2022-10-20T21:01:17.818Z,6.13
2022-10-20T21:03:45.846Z,6.78
2022-10-20T21:06:15.829Z,6.74
2022-10-20T21:08:44.986Z,6.51
2022-10-20T21:11:18.022Z,6.72
2022-10-20T21:13:46.684Z,6.49
2022-10-20T21:16:20.206Z,6.51
2022-10-20T21:18:48.926Z,6.99
2022-10-20T21:21:19.231Z,6.70
2022-10-20T21:23:46.887Z,6.69
2022-10-20T21:26:15.349Z,6.70
2022-10-20T21:28:43.452Z,6.66
2022-10-20T21:31:15.329Z,6.80
2022-10-20T21:33:43.092Z,7.10
2022-10-20T21:36:15.826Z,7.44
2022-10-20T21:38:43.776Z,7.61
2022-10-20T21:41:13.484Z,7.94
2022-10-20T21:43:43.334Z,7.85
2022-10-20T21:46:21.161Z,7.93
2022-10-20T21:48:50.157Z,7.42
2022-10-20T21:51:24.155Z,7.49
2022-10-20T21:53:55.827Z,7.66
2022-10-20T21:56:24.003Z,7.94
2022-10-20T21:58:52.158Z,8.21
2022-10-20T22:01:21.728Z,7.87
2022-10-20T22:03:50.418Z,8.09
2022-10-20T22:06:19.980Z,8.12
2022-10-20T22:08:49.335Z,8.32
2022-10-20T22:11:20.548Z,8.20
2022-10-20T22:13:48.419Z,7.89
2022-10-20T22:16:18.169Z,8.39
2022-10-20T22:18:45.751Z,7.91
2022-10-20T22:21:15.557Z,8.31
2022-10-20T22:23:43.593Z,8.30
2022-10-20T22:26:12.406Z,7.97
2022-10-20T22:28:40.135Z,8.05
2022-10-20T22:31:07.852Z,8.26
2022-10-20T22:33:35.566Z,8.24
2022-10-20T22:36:04.047Z,8.36
2022-10-20T22:38:31.519Z,8.59
2022-10-20T22:41:00.048Z,8.29
2022-10-20T22:43:28.671Z,8.41
2022-10-20T22:45:56.229Z,8.48
2022-10-20T22:48:24.152Z,7.97
2022-10-20T22:50:51.470Z,8.06
2022-10-20T22:53:18.856Z,8.00
2022-10-20T22:55:46.896Z,8.06
2022-10-20T22:58:14.267Z,8.24
2022-10-20T23:00:43.558Z,8.30
2022-10-20T23:03:11.248Z,7.56
2022-10-20T23:05:38.577Z,7.21
2022-10-20T23:08:06.390Z,7.37
2022-10-20T23:10:33.988Z,7.64
2022-10-20T23:13:01.305Z,7.54
2022-10-20T23:15:28.631Z,7.95
2022-10-20T23:17:56.214Z,7.71
2022-10-20T23:20:23.516Z,7.62
2022-10-20T23:22:50.838Z,7.60
2022-10-20T23:25:18.400Z,7.47
2022-10-20T23:27:45.715Z,7.47
2022-10-20T23:30:13.014Z,7.51
2022-10-20T23:32:40.679Z,7.55
2022-10-20T23:35:08.350Z,7.59
2022-10-20T23:37:38.198Z,7.76
2022-10-20T23:40:06.633Z,7.50
2022-10-20T23:42:33.975Z,7.18
2022-10-20T23:45:02.603Z,7.21
2022-10-20T23:47:31.057Z,7.21
2022-10-20T23:49:58.415Z,6.59
2022-10-20T23:52:25.727Z,6.68
2022-10-20T23:54:53.510Z,6.95
2022-10-20T23:57:20.807Z,6.74
2022-10-20T23:59:48.129Z,6.90
